Time;durP1;ratioP1;P1;durP2;ratioP2;P2;SDS_P1;SDS_P2;PMS_P1;PMS_P2;Temp;Humidity;BMP_temperature;BMP_pressure;BME280_temperature;BME280_humidity;BME280_pressure;Samples;Min_cycle;Max_cycle;Signal;HPM_P1;HPM_P2
2022/10/30 00:00:23;;;;;;;22.30;5.00;;;11.40;99.90;;;;;;5081255;28;20497;-53
2022/10/30 00:02:50;;;;;;;14.15;5.03;;;11.30;99.90;;;;;;5083768;28;20515;-51
2022/10/30 00:05:18;;;;;;;12.77;3.95;;;11.30;99.90;;;;;;5088640;28;20036;-50
2022/10/30 00:07:49;;;;;;;16.95;6.70;;;11.10;99.90;;;;;;5092223;28;20100;-50
2022/10/30 00:10:16;;;;;;;16.30;4.47;;;11.00;99.90;;;;;;5092325;28;20067;-51
2022/10/30 00:12:43;;;;;;;14.38;5.03;;;11.00;99.90;;;;;;5088349;28;20066;-51
2022/10/30 00:15:10;;;;;;;13.95;4.25;;;10.90;99.90;;;;;;5089627;28;20044;-53
2022/10/30 00:17:37;;;;;;;17.48;5.38;;;10.90;99.90;;;;;;5089892;28;20120;-51
2022/10/30 00:20:05;;;;;;;13.80;5.00;;;10.90;99.90;;;;;;5089262;28;20412;-51
2022/10/30 00:22:32;;;;;;;19.45;5.43;;;11.00;99.90;;;;;;5091900;28;20071;-50
2022/10/30 00:24:58;;;;;;;17.30;4.82;;;11.00;99.90;;;;;;5091172;28;20066;-52
2022/10/30 00:27:25;;;;;;;15.38;5.10;;;11.10;99.90;;;;;;5088675;28;20067;-51
2022/10/30 00:29:52;;;;;;;16.08;5.65;;;11.20;99.90;;;;;;5088032;28;20114;-51
2022/10/30 00:32:19;;;;;;;13.45;5.40;;;11.20;99.90;;;;;;5087894;28;20044;-51
2022/10/30 00:34:46;;;;;;;28.23;5.50;;;11.20;99.90;;;;;;5085676;28;20089;-52
2022/10/30 00:37:12;;;;;;;16.60;4.28;;;11.20;99.90;;;;;;5072539;28;20044;-51
2022/10/30 00:39:39;;;;;;;14.35;4.00;;;11.30;99.90;;;;;;5070081;28;20048;-49
2022/10/30 00:42:13;;;;;;;12.02;4.63;;;11.30;99.90;;;;;;5088649;28;20073;-52
2022/10/30 00:44:43;;;;;;;14.40;4.35;;;11.20;99.90;;;;;;5090898;28;20039;-53
2022/10/30 00:47:22;;;;;;;12.63;4.82;;;11.20;99.90;;;;;;5091212;28;20044;-50
2022/10/30 00:49:58;;;;;;;18.63;4.38;;;11.30;99.90;;;;;;5085442;28;20040;-50
2022/10/30 00:52:27;;;;;;;17.73;5.45;;;11.20;99.90;;;;;;5091495;28;20520;-51
2022/10/30 00:54:57;;;;;;;19.67;4.53;;;11.20;99.90;;;;;;5069669;28;20109;-51
2022/10/30 00:57:25;;;;;;;16.90;4.97;;;11.20;99.90;;;;;;5072620;28;20117;-50
2022/10/30 00:59:52;;;;;;;16.17;4.70;;;11.20;99.90;;;;;;5084254;28;20041;-50
2022/10/30 01:02:20;;;;;;;19.00;4.20;;;11.20;99.90;;;;;;5088790;28;20408;-50
2022/10/30 01:04:48;;;;;;;13.45;4.55;;;11.30;99.90;;;;;;5072482;28;20484;-53
2022/10/30 01:07:16;;;;;;;16.38;5.85;;;11.20;99.90;;;;;;5065868;28;20451;-50
2022/10/30 01:09:45;;;;;;;16.95;4.88;;;11.20;99.90;;;;;;5091152;28;20043;-50
2022/10/30 01:12:12;;;;;;;20.30;5.45;;;11.10;99.90;;;;;;5073108;28;20040;-51
2022/10/30 01:14:44;;;;;;;12.68;4.45;;;11.30;99.90;;;;;;5090908;28;20040;-50
2022/10/30 01:17:30;;;;;;;15.25;4.68;;;11.20;99.90;;;;;;5063662;28;20054;-49
2022/10/30 01:20:18;;;;;;;17.42;4.88;;;11.10;99.90;;;;;;5067006;28;20446;-51
2022/10/30 01:22:50;;;;;;;10.32;4.07;;;11.20;99.90;;;;;;5084805;28;20028;-51
2022/10/30 01:25:35;;;;;;;14.30;4.60;;;11.10;99.90;;;;;;5080222;28;20091;-52
2022/10/30 01:28:10;;;;;;;12.40;4.97;;;11.10;99.90;;;;;;5072881;28;20044;-54
2022/10/30 01:30:59;;;;;;;19.83;4.82;;;11.10;99.90;;;;;;5065408;28;20040;-53
2022/10/30 01:33:51;;;;;;;16.00;4.28;;;11.10;99.90;;;;;;5071000;28;20054;-51
2022/10/30 01:36:42;;;;;;;16.88;4.90;;;11.00;99.90;;;;;;5071046;28;20040;-50
2022/10/30 01:39:15;;;;;;;9.40;4.28;;;11.00;99.90;;;;;;5086562;28;20081;-50
2022/10/30 01:41:42;;;;;;;11.77;4.57;;;11.00;99.90;;;;;;5072687;28;20048;-51
2022/10/30 01:44:18;;;;;;;17.27;4.40;;;10.90;99.90;;;;;;5061360;28;20086;-50
2022/10/30 01:47:27;;;;;;;11.85;4.50;;;10.90;99.90;;;;;;5072638;28;20676;-51
2022/10/30 01:50:12;;;;;;;13.30;4.88;;;10.90;99.90;;;;;;5085794;28;20032;-50
2022/10/30 01:52:50;;;;;;;12.68;4.53;;;10.80;99.90;;;;;;5063025;28;20040;-53
2022/10/30 01:55:29;;;;;;;15.18;4.57;;;10.80;99.90;;;;;;5072163;28;20097;-53
2022/10/30 01:58:13;;;;;;;17.40;4.38;;;10.80;99.90;;;;;;5072795;28;20039;-51
2022/10/30 02:00:44;;;;;;;18.75;4.57;;;10.80;99.90;;;;;;5065753;28;20086;-51
2022/10/30 02:03:13;;;;;;;20.35;5.28;;;10.80;99.90;;;;;;5071860;28;20127;-51
2022/10/30 02:05:51;;;;;;;17.35;5.15;;;10.70;99.90;;;;;;5052292;28;20044;-52
2022/10/30 02:08:20;;;;;;;14.73;4.18;;;10.80;99.90;;;;;;5056798;28;20493;-49
2022/10/30 02:10:50;;;;;;;12.77;4.03;;;10.80;99.90;;;;;;5065748;28;20055;-50
2022/10/30 02:13:27;;;;;;;12.45;4.68;;;10.80;99.90;;;;;;5075753;28;20040;-49
2022/10/30 02:15:55;;;;;;;15.15;4.10;;;10.80;99.90;;;;;;5075699;28;20036;-50
2022/10/30 02:18:23;;;;;;;16.33;5.45;;;10.80;99.90;;;;;;5076714;28;20062;-51
2022/10/30 02:20:50;;;;;;;19.33;4.80;;;11.20;99.90;;;;;;5069076;28;20110;-50
2022/10/30 02:23:18;;;;;;;14.02;4.28;;;10.80;99.90;;;;;;5056337;28;20053;-52
2022/10/30 02:25:45;;;;;;;17.52;3.95;;;10.80;99.90;;;;;;5055564;28;20524;-50
2022/10/30 02:28:11;;;;;;;16.02;3.88;;;10.80;99.90;;;;;;5056103;28;20052;-52
2022/10/30 02:30:42;;;;;;;15.63;4.68;;;10.70;99.90;;;;;;5089708;28;20067;-50
2022/10/30 02:33:09;;;;;;;13.80;4.70;;;10.60;99.90;;;;;;5094203;28;20152;-51
2022/10/30 02:35:36;;;;;;;10.13;4.45;;;10.60;99.90;;;;;;5096405;22;20011;-48
2022/10/30 02:38:31;;;;;;;14.23;4.22;;;10.50;99.90;;;;;;5022283;28;20049;-49
2022/10/30 02:40:58;;;;;;;20.25;6.35;;;10.50;99.90;;;;;;5017274;28;20473;-48
2022/10/30 02:43:24;;;;;;;20.88;4.93;;;10.50;99.90;;;;;;5033582;28;20041;-52
2022/10/30 02:45:51;;;;;;;12.80;5.22;;;10.50;99.90;;;;;;5033881;28;20041;-48
2022/10/30 02:48:19;;;;;;;15.85;4.65;;;10.40;99.90;;;;;;5034766;28;20037;-47
2022/10/30 02:50:47;;;;;;;10.05;4.40;;;10.40;99.90;;;;;;5019662;28;20053;-49
2022/10/30 02:53:13;;;;;;;15.70;4.57;;;10.40;99.90;;;;;;5035820;28;20452;-48
2022/10/30 02:55:41;;;;;;;;;;;10.40;99.90;;;;;;5016410;28;20038;-49
2022/10/30 02:58:08;;;;;;;13.82;4.70;;;10.50;99.90;;;;;;5022599;28;19944;-47
2022/10/30 03:00:35;;;;;;;17.67;5.88;;;10.50;99.90;;;;;;5012263;28;20041;-48
2022/10/30 03:03:02;;;;;;;14.68;4.03;;;10.40;99.90;;;;;;5032468;28;20041;-49
2022/10/30 03:05:29;;;;;;;15.23;4.05;;;10.50;99.90;;;;;;5037212;28;20044;-47
2022/10/30 03:07:56;;;;;;;13.82;4.68;;;10.50;99.90;;;;;;5040337;28;20052;-48
2022/10/30 03:10:23;;;;;;;15.15;4.68;;;10.50;99.90;;;;;;5046016;28;20060;-48
2022/10/30 03:12:51;;;;;;;22.55;5.32;;;10.60;99.90;;;;;;5050566;28;20055;-47
2022/10/30 03:15:17;;;;;;;9.98;4.28;;;10.60;99.90;;;;;;5053710;28;20044;-47
2022/10/30 03:17:44;;;;;;;15.60;4.90;;;10.70;99.90;;;;;;5072329;28;20105;-48
2022/10/30 03:20:11;;;;;;;14.93;4.72;;;10.80;99.90;;;;;;5061060;28;20057;-47
2022/10/30 03:22:38;;;;;;;14.52;5.25;;;10.70;99.90;;;;;;5073168;28;20041;-47
2022/10/30 03:25:05;;;;;;;13.27;4.68;;;10.80;99.90;;;;;;5072135;28;20426;-47
2022/10/30 03:27:32;;;;;;;16.52;4.57;;;10.70;99.90;;;;;;5055261;28;20525;-48
2022/10/30 03:29:59;;;;;;;19.08;5.43;;;10.70;99.90;;;;;;5048407;28;20411;-47
2022/10/30 03:32:27;;;;;;;11.63;4.72;;;10.70;99.90;;;;;;5073410;28;20083;-49
2022/10/30 03:34:54;;;;;;;19.60;4.70;;;10.70;99.90;;;;;;5054495;28;20505;-49
2022/10/30 03:37:21;;;;;;;12.20;4.40;;;10.60;99.90;;;;;;5060012;28;20041;-52
2022/10/30 03:39:47;;;;;;;11.30;4.25;;;10.60;99.90;;;;;;5043395;28;20040;-49
2022/10/30 03:42:14;;;;;;;27.98;4.50;;;10.60;99.90;;;;;;5055084;28;20060;-47
2022/10/30 03:44:41;;;;;;;;;;;10.50;99.90;;;;;;5055246;28;20045;-47
2022/10/30 03:47:08;;;;;;;16.77;4.45;;;10.50;99.90;;;;;;5035693;28;19944;-48
2022/10/30 03:49:42;;;;;;;13.65;4.57;;;10.50;99.90;;;;;;5035168;28;20509;-47
2022/10/30 03:52:12;;;;;;;14.60;4.40;;;10.50;99.90;;;;;;5035278;28;20056;-48
2022/10/30 03:54:39;;;;;;;11.55;4.13;;;10.50;99.90;;;;;;5049813;28;20048;-48
2022/10/30 03:57:07;;;;;;;14.80;4.50;;;10.50;99.90;;;;;;5054777;28;20552;-49
2022/10/30 03:59:52;;;;;;;23.15;4.30;;;10.50;99.90;;;;;;5054479;28;20074;-48
2022/10/30 04:02:47;;;;;;;21.63;5.43;;;10.60;99.90;;;;;;5072722;28;20049;-48
2022/10/30 04:05:17;;;;;;;16.23;4.20;;;10.60;99.90;;;;;;5036821;28;20062;-48
2022/10/30 04:07:44;;;;;;;12.82;3.92;;;10.60;99.90;;;;;;5034876;28;20103;-47
2022/10/30 04:10:11;;;;;;;21.45;4.35;;;10.60;99.90;;;;;;5031248;28;20410;-48
2022/10/30 04:12:38;;;;;;;;;;;10.50;99.90;;;;;;5048062;28;20036;-49
2022/10/30 04:15:07;;;;;;;12.95;4.03;;;10.50;99.90;;;;;;5052846;28;19970;-48
2022/10/30 04:17:34;;;;;;;13.35;4.10;;;10.50;99.90;;;;;;5053822;28;20497;-47
2022/10/30 04:20:03;;;;;;;15.07;4.70;;;10.40;99.90;;;;;;5047487;28;20056;-48
2022/10/30 04:22:30;;;;;;;14.95;4.80;;;10.40;99.90;;;;;;5052271;28;20033;-49
2022/10/30 04:24:57;;;;;;;21.92;5.50;;;10.40;99.90;;;;;;5051970;28;20041;-49
2022/10/30 04:27:24;;;;;;;14.52;3.85;;;10.40;99.90;;;;;;5043582;28;20111;-48
2022/10/30 04:29:51;;;;;;;13.30;3.70;;;10.40;99.90;;;;;;5053940;28;20412;-50
2022/10/30 04:32:18;;;;;;;15.43;4.28;;;10.30;99.90;;;;;;5054179;28;20111;-48
2022/10/30 04:34:46;;;;;;;19.02;4.95;;;10.30;99.90;;;;;;5051772;28;20048;-47
2022/10/30 04:37:13;;;;;;;;;;;10.20;99.90;;;;;;5013464;28;20080;-51
2022/10/30 04:39:40;;;;;;;9.98;3.53;;;10.20;99.90;;;;;;5034147;28;19924;-48
2022/10/30 04:42:16;;;;;;;15.50;3.80;;;10.20;99.90;;;;;;5034649;28;20075;-48
2022/10/30 04:44:43;;;;;;;19.40;4.70;;;10.10;99.90;;;;;;5053414;28;20609;-48
2022/10/30 04:47:10;;;;;;;17.75;4.75;;;10.10;99.90;;;;;;5053768;28;20060;-47
2022/10/30 04:49:36;;;;;;;17.13;4.60;;;10.10;99.90;;;;;;5071720;28;20040;-47
2022/10/30 04:52:03;;;;;;;14.82;4.13;;;10.10;99.90;;;;;;5058679;28;20044;-48
2022/10/30 04:54:30;;;;;;;12.77;4.40;;;10.10;99.90;;;;;;5053377;28;20048;-48
2022/10/30 04:56:57;;;;;;;14.75;4.10;;;10.10;99.90;;;;;;5071395;28;20413;-47
2022/10/30 04:59:24;;;;;;;14.18;4.38;;;10.00;99.90;;;;;;5053886;28;20055;-50
2022/10/30 05:01:53;;;;;;;12.90;4.40;;;10.00;99.90;;;;;;5039348;28;20124;-47
2022/10/30 05:04:20;;;;;;;12.63;4.75;;;10.00;99.90;;;;;;5033507;28;20102;-48
2022/10/30 05:06:47;;;;;;;16.17;4.40;;;10.00;99.90;;;;;;5033591;28;20052;-48
2022/10/30 05:09:15;;;;;;;15.60;4.38;;;10.00;99.90;;;;;;5042000;28;20480;-48
2022/10/30 05:11:42;;;;;;;11.43;4.28;;;10.00;99.90;;;;;;5053227;28;20060;-51
2022/10/30 05:14:08;;;;;;;14.30;4.40;;;10.10;99.90;;;;;;5070839;28;20441;-47
2022/10/30 05:16:36;;;;;;;15.88;4.82;;;10.20;99.90;;;;;;5041960;28;20080;-47
2022/10/30 05:19:03;;;;;;;;;;;10.20;99.90;;;;;;5038008;28;20463;-50
2022/10/30 05:21:32;;;;;;;12.57;4.65;;;10.20;99.90;;;;;;5033975;28;19920;-50
2022/10/30 05:23:59;;;;;;;18.35;6.35;;;10.20;99.90;;;;;;5040916;28;20046;-48
2022/10/30 05:26:29;;;;;;;15.80;4.65;;;10.20;99.90;;;;;;5036474;28;20040;-50
2022/10/30 05:28:55;;;;;;;20.63;4.15;;;10.20;99.90;;;;;;5070093;28;20040;-50
2022/10/30 05:31:22;;;;;;;21.85;5.70;;;10.20;99.90;;;;;;5044742;28;20049;-48
2022/10/30 05:34:04;;;;;;;14.73;4.57;;;10.20;99.90;;;;;;5070417;28;20044;-47
2022/10/30 05:36:34;;;;;;;19.08;6.35;;;10.10;99.90;;;;;;5052637;28;20409;-48
2022/10/30 05:39:02;;;;;;;15.68;4.22;;;10.20;99.90;;;;;;5041759;28;20045;-47
2022/10/30 05:41:35;;;;;;;17.85;5.43;;;10.20;99.90;;;;;;5025890;28;20099;-48
2022/10/30 05:44:03;;;;;;;16.45;4.45;;;10.10;99.90;;;;;;5033119;28;20041;-47
2022/10/30 05:46:31;;;;;;;19.13;5.40;;;10.10;99.90;;;;;;5028955;28;20071;-48
2022/10/30 05:49:08;;;;;;;18.87;4.43;;;10.10;99.90;;;;;;5050607;28;20048;-48
2022/10/30 05:51:35;;;;;;;16.98;4.55;;;10.00;99.90;;;;;;5056606;28;20713;-48
2022/10/30 05:54:08;;;;;;;13.32;5.10;;;10.00;99.90;;;;;;5057127;28;20520;-48
2022/10/30 05:56:40;;;;;;;14.32;5.03;;;10.00;99.90;;;;;;5043540;28;20389;-48
2022/10/30 05:59:07;;;;;;;7.90;4.43;;;9.90;99.90;;;;;;5057052;28;20037;-48
2022/10/30 06:01:33;;;;;;;17.38;5.35;;;9.90;99.90;;;;;;5065023;28;20041;-48
2022/10/30 06:04:04;;;;;;;19.13;5.80;;;9.90;99.90;;;;;;5056635;28;20040;-48
2022/10/30 06:06:31;;;;;;;16.88;5.93;;;9.80;99.90;;;;;;5055364;28;20501;-49
2022/10/30 06:08:58;;;;;;;12.90;5.47;;;9.90;99.90;;;;;;5049666;28;20513;-48
2022/10/30 06:11:39;;;;;;;13.20;4.57;;;9.80;99.90;;;;;;5056714;28;20048;-47
2022/10/30 06:14:08;;;;;;;12.00;5.82;;;9.90;99.90;;;;;;5055874;28;20056;-48
2022/10/30 06:16:39;;;;;;;13.57;4.75;;;9.80;99.90;;;;;;5053893;28;20044;-49
2022/10/30 06:19:15;;;;;;;17.70;5.28;;;9.90;99.90;;;;;;5052709;28;20052;-48
2022/10/30 06:21:45;;;;;;;22.27;4.72;;;9.90;99.90;;;;;;5036774;28;20524;-51
2022/10/30 06:24:32;;;;;;;16.33;4.93;;;9.90;99.90;;;;;;5053840;28;20502;-47
2022/10/30 06:27:22;;;;;;;14.30;5.22;;;9.90;99.90;;;;;;5025923;28;20059;-51
2022/10/30 06:29:49;;;;;;;12.38;4.68;;;9.90;99.90;;;;;;5056636;28;20152;-47
2022/10/30 06:32:16;;;;;;;19.08;5.90;;;9.90;99.90;;;;;;5056181;28;20045;-49
2022/10/30 06:34:44;;;;;;;14.25;4.95;;;9.90;99.90;;;;;;5046678;28;20037;-48
2022/10/30 06:37:12;;;;;;;23.48;4.68;;;9.90;99.90;;;;;;5036365;28;20095;-48
2022/10/30 06:39:39;;;;;;;21.42;4.72;;;9.90;99.90;;;;;;5036691;28;20200;-47
2022/10/30 06:42:26;;;;;;;13.07;4.38;;;9.90;99.90;;;;;;5052839;28;20394;-48
2022/10/30 06:45:05;;;;;;;20.02;5.10;;;9.90;99.90;;;;;;5029004;28;20137;-51
2022/10/30 06:47:36;;;;;;;22.33;5.57;;;9.90;99.90;;;;;;5031667;28;20042;-47
2022/10/30 06:50:05;;;;;;;17.55;5.18;;;9.90;99.90;;;;;;5065198;28;20467;-50
2022/10/30 06:52:31;;;;;;;20.40;5.07;;;10.00;99.90;;;;;;5055286;28;20562;-47
2022/10/30 06:54:59;;;;;;;12.02;4.93;;;10.00;99.90;;;;;;5055523;28;20049;-48
2022/10/30 06:57:53;;;;;;;14.45;4.82;;;10.00;99.90;;;;;;5039651;28;20534;-48
2022/10/30 07:00:41;;;;;;;10.90;4.80;;;10.10;99.90;;;;;;5051471;28;20064;-47
2022/10/30 07:03:34;;;;;;;10.90;4.90;;;10.20;99.90;;;;;;5060115;28;20531;-48
2022/10/30 07:06:02;;;;;;;16.38;5.80;;;10.20;99.90;;;;;;5042191;28;20041;-48
2022/10/30 07:08:29;;;;;;;22.63;5.28;;;10.20;99.90;;;;;;5043776;28;20037;-48
2022/10/30 07:10:57;;;;;;;15.63;5.50;;;10.30;99.90;;;;;;5051812;28;20041;-48
2022/10/30 07:13:24;;;;;;;;;;;10.30;99.90;;;;;;5054464;28;20056;-48
2022/10/30 07:16:13;;;;;;;10.60;4.45;;;10.30;99.90;;;;;;5049226;28;19925;-47
2022/10/30 07:18:43;;;;;;;16.20;5.30;;;10.30;99.90;;;;;;5035776;28;20037;-48
2022/10/30 07:21:09;;;;;;;19.92;5.32;;;10.30;99.90;;;;;;5032111;28;20037;-51
2022/10/30 07:23:36;;;;;;;18.02;4.75;;;10.30;99.90;;;;;;5055158;28;20131;-48
2022/10/30 07:26:15;;;;;;;25.77;7.50;;;10.40;99.90;;;;;;5055070;28;20147;-48
2022/10/30 07:28:44;;;;;;;17.15;5.05;;;10.50;99.90;;;;;;5043042;28;20131;-47
2022/10/30 07:31:37;;;;;;;15.00;4.78;;;10.60;99.90;;;;;;5069400;28;20053;-50
2022/10/30 07:34:47;;;;;;;14.43;5.03;;;10.80;99.90;;;;;;5055005;28;20057;-48
2022/10/30 07:37:33;;;;;;;12.52;4.38;;;11.00;99.90;;;;;;5034735;28;20674;-48
2022/10/30 07:40:09;;;;;;;13.63;5.00;;;11.20;99.90;;;;;;5038466;28;20049;-47
2022/10/30 07:42:58;;;;;;;17.13;4.47;;;11.40;99.90;;;;;;5033057;28;20041;-47
2022/10/30 07:45:55;;;;;;;14.98;4.78;;;11.60;99.90;;;;;;5034336;28;20462;-49
2022/10/30 07:48:24;;;;;;;16.83;5.07;;;11.60;99.90;;;;;;5053487;28;20056;-47
2022/10/30 07:51:20;;;;;;;15.32;5.10;;;11.70;99.90;;;;;;5036639;28;20045;-52
2022/10/30 07:53:48;;;;;;;13.35;4.70;;;11.70;99.90;;;;;;5032776;28;20139;-48
2022/10/30 07:56:15;;;;;;;;;;;11.90;99.90;;;;;;5055101;28;20555;-48
2022/10/30 07:58:51;;;;;;;16.75;4.22;;;12.00;99.90;;;;;;5060130;28;19928;-50
2022/10/30 08:01:48;;;;;;;15.35;4.32;;;12.10;99.90;;;;;;5022916;28;20161;-47
2022/10/30 08:04:44;;;;;;;14.45;5.90;;;12.20;99.90;;;;;;5038858;28;20138;-48
2022/10/30 08:07:33;;;;;;;13.05;4.78;;;12.30;99.90;;;;;;5034124;28;20041;-48
2022/10/30 08:10:00;;;;;;;15.68;3.75;;;12.60;99.90;;;;;;5034131;28;20041;-48
2022/10/30 08:12:27;;;;;;;12.50;4.47;;;12.50;99.90;;;;;;5034900;28;20056;-48
2022/10/30 08:14:55;;;;;;;;;;;12.60;99.90;;;;;;5052805;28;20044;-48
2022/10/30 08:17:21;;;;;;;17.48;5.00;;;12.50;99.90;;;;;;5058240;28;19920;-47
2022/10/30 08:19:48;;;;;;;10.90;4.40;;;12.60;99.90;;;;;;5034062;28;20469;-48
2022/10/30 08:22:16;;;;;;;10.85;3.92;;;12.60;99.90;;;;;;5032481;28;20532;-50
2022/10/30 08:24:49;;;;;;;22.48;4.68;;;12.60;99.90;;;;;;5053738;28;20068;-48
2022/10/30 08:27:16;;;;;;;14.98;4.60;;;12.60;99.90;;;;;;5046288;28;20494;-49
2022/10/30 08:29:42;;;;;;;11.82;4.20;;;12.70;99.90;;;;;;5054000;28;20048;-48
2022/10/30 08:32:09;;;;;;;12.90;4.68;;;12.90;99.90;;;;;;5052585;28;20524;-48
2022/10/30 08:35:11;;;;;;;11.82;4.30;;;12.90;99.90;;;;;;5040932;28;20424;-48
2022/10/30 08:38:23;;;;;;;15.88;4.22;;;13.10;99.90;;;;;;5075890;22;20059;-52
2022/10/30 08:41:04;;;;;;;14.18;4.60;;;13.20;99.90;;;;;;5055395;28;20036;-47
2022/10/30 08:43:37;;;;;;;26.35;5.07;;;13.30;99.90;;;;;;5071564;28;20051;-46
2022/10/30 08:46:04;;;;;;;14.32;5.00;;;13.40;99.90;;;;;;5070366;28;20036;-49
2022/10/30 08:48:31;;;;;;;14.63;4.78;;;13.60;99.90;;;;;;5071413;28;20044;-48
2022/10/30 08:51:01;;;;;;;13.52;5.03;;;13.60;99.90;;;;;;5068946;28;20055;-49
2022/10/30 08:53:34;;;;;;;12.35;4.40;;;13.80;99.90;;;;;;5070848;28;20047;-48
2022/10/30 08:56:06;;;;;;;17.52;4.50;;;13.90;99.90;;;;;;5069368;28;21405;-48
2022/10/30 08:58:50;;;;;;;12.40;4.60;;;14.00;99.90;;;;;;5069941;28;20072;-49
2022/10/30 09:01:18;;;;;;;10.93;3.85;;;14.10;99.90;;;;;;5068044;28;20055;-48
2022/10/30 09:04:10;;;;;;;8.38;4.47;;;14.20;99.90;;;;;;5070194;28;20454;-48
2022/10/30 09:06:59;;;;;;;13.18;3.90;;;14.30;99.90;;;;;;5038900;28;20067;-49
2022/10/30 09:09:47;;;;;;;10.50;3.58;;;14.40;99.90;;;;;;5058037;28;20048;-48
2022/10/30 09:12:15;;;;;;;11.85;4.15;;;14.60;99.90;;;;;;5066879;28;20071;-48
2022/10/30 09:14:44;;;;;;;11.80;4.10;;;14.50;99.90;;;;;;5079227;28;20028;-49
2022/10/30 09:17:11;;;;;;;13.95;3.95;;;14.60;99.90;;;;;;5070762;28;20036;-49
2022/10/30 09:19:42;;;;;;;13.43;3.80;;;14.70;99.90;;;;;;5052049;28;20041;-49
2022/10/30 09:22:12;;;;;;;15.48;4.25;;;14.70;99.90;;;;;;5052260;28;20045;-50
2022/10/30 09:24:41;;;;;;;14.45;3.70;;;14.90;99.90;;;;;;5067153;28;20451;-51
2022/10/30 09:27:26;;;;;;;11.00;3.95;;;14.90;99.90;;;;;;5091693;28;20055;-49
2022/10/30 09:29:55;;;;;;;16.42;3.60;;;15.00;99.90;;;;;;5072983;28;20125;-49
2022/10/30 09:32:26;;;;;;;14.15;4.05;;;15.20;99.90;;;;;;5065383;28;20120;-47
2022/10/30 09:35:01;;;;;;;17.40;4.60;;;15.30;99.90;;;;;;5072594;28;20101;-48
2022/10/30 09:37:39;;;;;;;14.32;3.72;;;15.50;99.90;;;;;;5073105;28;20040;-49
2022/10/30 09:40:33;;;;;;;11.07;3.55;;;15.50;99.90;;;;;;5071080;28;20110;-48
2022/10/30 09:43:23;;;;;;;14.88;3.60;;;15.70;99.90;;;;;;5085533;28;20573;-49
2022/10/30 09:45:53;;;;;;;12.73;3.47;;;15.90;99.90;;;;;;5069485;28;20044;-51
2022/10/30 09:48:31;;;;;;;19.83;3.95;;;16.00;99.90;;;;;;5072265;28;20169;-48
2022/10/30 09:51:45;;;;;;;14.38;3.33;;;16.00;99.90;;;;;;5072531;28;20052;-48
2022/10/30 09:54:16;;;;;;;12.57;3.38;;;16.20;99.90;;;;;;5066259;28;20428;-48
2022/10/30 09:57:04;;;;;;;10.65;3.13;;;16.20;99.90;;;;;;5066676;28;20044;-50
2022/10/30 09:59:35;;;;;;;15.40;4.70;;;16.30;99.90;;;;;;5072572;28;20044;-46
2022/10/30 10:02:34;;;;;;;13.70;3.88;;;16.40;99.90;;;;;;5071969;28;20046;-48
2022/10/30 10:05:37;;;;;;;10.77;3.30;;;16.40;99.90;;;;;;5070038;28;20039;-49
2022/10/30 10:08:36;;;;;;;20.02;4.00;;;16.50;99.90;;;;;;5072400;28;20246;-50
2022/10/30 10:11:31;;;;;;;10.45;3.78;;;16.70;99.90;;;;;;5090953;28;20066;-48
2022/10/30 10:14:07;;;;;;;11.80;3.13;;;16.80;99.90;;;;;;5089589;28;20072;-48
2022/10/30 10:16:39;;;;;;;16.63;4.10;;;17.00;99.90;;;;;;5083460;28;20125;-47
2022/10/30 10:19:22;;;;;;;15.07;3.55;;;17.30;99.90;;;;;;5070367;28;20098;-48
2022/10/30 10:21:58;;;;;;;9.48;2.92;;;17.40;99.90;;;;;;5069996;28;20044;-47
2022/10/30 10:24:35;;;;;;;14.02;3.38;;;17.40;99.90;;;;;;5069296;28;20044;-50
2022/10/30 10:27:39;;;;;;;7.57;2.60;;;17.50;99.90;;;;;;5069677;28;20041;-47
2022/10/30 10:30:10;;;;;;;8.90;3.10;;;17.70;99.90;;;;;;5069725;28;20577;-46
2022/10/30 10:32:56;;;;;;;16.35;4.00;;;17.80;99.90;;;;;;5070480;28;20131;-49
2022/10/30 10:35:42;;;;;;;9.50;2.90;;;17.80;99.90;;;;;;5073627;28;20036;-50
2022/10/30 10:38:11;;;;;;;11.75;3.17;;;17.80;99.90;;;;;;5055412;28;20083;-49
2022/10/30 10:40:38;;;;;;;13.65;3.45;;;17.80;99.90;;;;;;5079127;28;20101;-47
2022/10/30 10:43:23;;;;;;;16.75;3.88;;;17.80;99.90;;;;;;5074693;28;20119;-47
2022/10/30 10:46:12;;;;;;;12.85;3.83;;;17.80;99.90;;;;;;5072815;28;20075;-47
2022/10/30 10:48:54;;;;;;;10.80;2.90;;;17.90;99.90;;;;;;5078020;28;20064;-48
2022/10/30 10:51:35;;;;;;;14.20;2.88;;;18.00;99.90;;;;;;5085751;28;20450;-47
2022/10/30 10:54:10;;;;;;;13.10;3.13;;;18.00;99.90;;;;;;5084690;28;20511;-46
2022/10/30 10:56:40;;;;;;;13.95;3.58;;;18.10;99.90;;;;;;5078502;28;20098;-46
2022/10/30 10:59:25;;;;;;;10.80;3.55;;;18.20;99.90;;;;;;5082690;28;20082;-47
2022/10/30 11:02:04;;;;;;;9.57;2.97;;;18.10;99.90;;;;;;5076875;28;20094;-49
2022/10/30 11:04:39;;;;;;;11.65;3.75;;;18.40;99.90;;;;;;5074603;28;20040;-51
2022/10/30 11:07:21;;;;;;;10.95;2.67;;;18.50;99.90;;;;;;5085639;28;20102;-50
2022/10/30 11:09:53;;;;;;;13.15;3.10;;;18.60;99.90;;;;;;5082799;28;20097;-50
2022/10/30 11:12:25;;;;;;;20.50;3.38;;;18.70;99.90;;;;;;5083464;28;20127;-49
2022/10/30 11:15:02;;;;;;;8.90;2.92;;;18.80;99.90;;;;;;5093175;28;20063;-50
2022/10/30 11:17:41;;;;;;;11.07;3.08;;;18.90;99.90;;;;;;5093102;28;20040;-48
2022/10/30 11:20:17;;;;;;;7.47;3.28;;;19.00;99.90;;;;;;5091712;28;20067;-47
2022/10/30 11:22:49;;;;;;;13.23;3.13;;;19.20;99.90;;;;;;5086962;28;20036;-47
2022/10/30 11:25:24;;;;;;;11.90;3.30;;;19.20;99.90;;;;;;5092567;28;20076;-48
2022/10/30 11:27:59;;;;;;;7.40;2.95;;;19.30;99.90;;;;;;5073447;28;20048;-48
2022/10/30 11:30:27;;;;;;;12.90;3.35;;;19.40;99.90;;;;;;5089809;28;20995;-48
2022/10/30 11:32:55;;;;;;;9.68;3.72;;;19.50;99.90;;;;;;5071547;28;20043;-49
2022/10/30 11:35:24;;;;;;;10.85;3.28;;;19.50;99.90;;;;;;5073012;28;20090;-48
2022/10/30 11:38:11;;;;;;;9.60;3.33;;;19.60;99.90;;;;;;5079063;28;20507;-52
2022/10/30 11:40:40;;;;;;;8.57;2.60;;;19.70;99.90;;;;;;5076518;28;20041;-50
2022/10/30 11:43:11;;;;;;;11.07;2.60;;;19.70;99.90;;;;;;5086854;28;20117;-48
2022/10/30 11:45:40;;;;;;;9.52;2.92;;;19.70;99.90;;;;;;5091777;28;20492;-50
2022/10/30 11:48:37;;;;;;;17.75;3.05;;;19.80;99.90;;;;;;5092914;28;20416;-47
2022/10/30 11:51:04;;;;;;;10.40;2.72;;;19.90;99.90;;;;;;5084275;28;20471;-50
2022/10/30 11:53:33;;;;;;;;;;;19.90;99.90;;;;;;5084964;28;20128;-51
2022/10/30 11:56:02;;;;;;;8.65;2.65;;;20.00;99.90;;;;;;5092590;28;19920;-49
2022/10/30 11:58:31;;;;;;;11.90;2.65;;;20.10;99.90;;;;;;5092876;28;20089;-48
2022/10/30 12:01:05;;;;;;;11.18;2.60;;;20.10;99.90;;;;;;5085057;28;20028;-50
2022/10/30 12:03:37;;;;;;;9.20;3.08;;;20.10;99.90;;;;;;5072553;28;20045;-53
2022/10/30 12:06:26;;;;;;;11.18;2.33;;;20.30;99.90;;;;;;5072528;28;20485;-48
2022/10/30 12:09:14;;;;;;;14.50;4.00;;;20.20;99.90;;;;;;5072476;28;20048;-49
2022/10/30 12:11:43;;;;;;;14.50;2.50;;;20.30;99.90;;;;;;5071997;28;20086;-52
2022/10/30 12:14:21;;;;;;;8.23;2.45;;;20.40;99.90;;;;;;5089244;28;20079;-48
2022/10/30 12:16:50;;;;;;;9.82;2.88;;;20.40;99.90;;;;;;5092509;28;20121;-48
2022/10/30 12:19:20;;;;;;;11.82;2.55;;;20.50;99.90;;;;;;5085247;28;20511;-49
2022/10/30 12:21:55;;;;;;;9.60;3.22;;;20.50;99.90;;;;;;5084912;28;20052;-50
2022/10/30 12:24:27;;;;;;;13.63;2.80;;;20.50;99.90;;;;;;5076548;28;20040;-53
2022/10/30 12:26:55;;;;;;;12.38;2.70;;;20.60;99.90;;;;;;5071846;28;20073;-49
2022/10/30 12:29:37;;;;;;;10.93;2.38;;;20.50;99.90;;;;;;5080965;28;20485;-49
2022/10/30 12:32:32;;;;;;;10.57;2.78;;;20.80;99.90;;;;;;5071534;28;20044;-48
2022/10/30 12:35:28;;;;;;;10.85;2.95;;;20.80;99.90;;;;;;5078267;28;20468;-49
2022/10/30 12:37:56;;;;;;;16.15;3.08;;;20.80;99.90;;;;;;5083617;28;20098;-49
2022/10/30 12:40:29;;;;;;;14.43;3.08;;;20.80;99.90;;;;;;5080329;28;20097;-50
2022/10/30 12:43:11;;;;;;;13.35;3.53;;;20.90;99.90;;;;;;5083056;28;20082;-51
2022/10/30 12:45:44;;;;;;;11.07;2.67;;;20.90;99.90;;;;;;5086036;28;20119;-51
2022/10/30 12:48:36;;;;;;;13.30;2.90;;;20.90;99.90;;;;;;5081699;28;20040;-51
2022/10/30 12:51:18;;;;;;;12.07;2.45;;;20.90;99.90;;;;;;5081034;28;20427;-50
2022/10/30 12:53:52;;;;;;;12.93;2.75;;;20.90;99.90;;;;;;5082668;28;20036;-49
2022/10/30 12:56:27;;;;;;;9.60;2.95;;;20.80;99.90;;;;;;5081636;28;20058;-49
2022/10/30 12:59:16;;;;;;;12.00;3.38;;;20.90;99.90;;;;;;5081919;28;20091;-50
2022/10/30 13:01:59;;;;;;;7.07;2.28;;;21.00;99.90;;;;;;5081835;28;20044;-50
2022/10/30 13:04:31;;;;;;;11.68;2.78;;;21.00;99.90;;;;;;5081896;28;20068;-48
2022/10/30 13:07:15;;;;;;;19.05;3.17;;;21.10;99.90;;;;;;5078864;28;20037;-50
2022/10/30 13:10:12;;;;;;;16.15;2.88;;;21.10;99.90;;;;;;5081942;28;20036;-49
2022/10/30 13:12:43;;;;;;;11.38;2.90;;;21.10;99.90;;;;;;5080226;28;20040;-49
2022/10/30 13:15:27;;;;;;;11.63;3.00;;;21.20;99.90;;;;;;5083419;28;20036;-49